sensor_id;sensor_type;location;lat;lon;timestamp;P1;durP1;ratioP1;P2;durP2;ratioP2
39370;SDS011;25099;51.946;4.838;2022-09-09T00:09:29;3.25;;;2.10;;
39370;SDS011;25099;51.946;4.838;2022-09-09T00:12:00;5.88;;;2.40;;
39370;SDS011;25099;51.946;4.838;2022-09-09T00:17:39;3.58;;;1.98;;
39370;SDS011;25099;51.946;4.838;2022-09-09T00:20:24;7.25;;;2.63;;
39370;SDS011;25099;51.946;4.838;2022-09-09T00:22:53;4.00;;;2.10;;
39370;SDS011;25099;51.946;4.838;2022-09-09T00:25:41;6.63;;;2.30;;
39370;SDS011;25099;51.946;4.838;2022-09-09T00:28:13;6.13;;;2.33;;
39370;SDS011;25099;51.946;4.838;2022-09-09T00:30:43;5.80;;;2.90;;
39370;SDS011;25099;51.946;4.838;2022-09-09T00:33:13;4.45;;;2.85;;
39370;SDS011;25099;51.946;4.838;2022-09-09T00:35:42;3.50;;;2.22;;
39370;SDS011;25099;51.946;4.838;2022-09-09T00:40:49;3.20;;;2.50;;
39370;SDS011;25099;51.946;4.838;2022-09-09T00:45:58;4.15;;;3.10;;
39370;SDS011;25099;51.946;4.838;2022-09-09T00:48:48;6.07;;;3.10;;
39370;SDS011;25099;51.946;4.838;2022-09-09T00:54:27;3.35;;;2.97;;
39370;SDS011;25099;51.946;4.838;2022-09-09T00:57:31;3.50;;;3.17;;
39370;SDS011;25099;51.946;4.838;2022-09-09T01:00:18;5.90;;;3.05;;
39370;SDS011;25099;51.946;4.838;2022-09-09T01:22:40;6.50;;;3.78;;
39370;SDS011;25099;51.946;4.838;2022-09-09T01:28:32;8.73;;;3.60;;
39370;SDS011;25099;51.946;4.838;2022-09-09T01:31:02;4.82;;;4.13;;
39370;SDS011;25099;51.946;4.838;2022-09-09T01:33:30;4.25;;;3.92;;
39370;SDS011;25099;51.946;4.838;2022-09-09T01:38:44;6.15;;;4.22;;
39370;SDS011;25099;51.946;4.838;2022-09-09T01:41:10;10.73;;;5.32;;
39370;SDS011;25099;51.946;4.838;2022-09-09T01:43:36;5.20;;;4.70;;
39370;SDS011;25099;51.946;4.838;2022-09-09T01:46:02;5.50;;;4.20;;
39370;SDS011;25099;51.946;4.838;2022-09-09T01:48:28;8.13;;;4.25;;
39370;SDS011;25099;51.946;4.838;2022-09-09T01:50:54;4.82;;;4.32;;
39370;SDS011;25099;51.946;4.838;2022-09-09T01:53:20;6.68;;;5.28;;
39370;SDS011;25099;51.946;4.838;2022-09-09T02:00:57;4.95;;;4.20;;
39370;SDS011;25099;51.946;4.838;2022-09-09T02:03:31;5.95;;;4.55;;
39370;SDS011;25099;51.946;4.838;2022-09-09T02:06:05;7.82;;;4.82;;
39370;SDS011;25099;51.946;4.838;2022-09-09T02:08:45;8.13;;;4.97;;
39370;SDS011;25099;51.946;4.838;2022-09-09T02:11:15;6.03;;;4.80;;
39370;SDS011;25099;51.946;4.838;2022-09-09T02:13:44;7.43;;;4.30;;
39370;SDS011;25099;51.946;4.838;2022-09-09T02:18:41;9.40;;;4.90;;
39370;SDS011;25099;51.946;4.838;2022-09-09T02:21:11;8.43;;;4.95;;
39370;SDS011;25099;51.946;4.838;2022-09-09T02:23:39;7.32;;;4.78;;
39370;SDS011;25099;51.946;4.838;2022-09-09T02:26:06;5.72;;;4.95;;
39370;SDS011;25099;51.946;4.838;2022-09-09T02:28:35;5.97;;;5.05;;
39370;SDS011;25099;51.946;4.838;2022-09-09T02:31:02;6.28;;;5.05;;
39370;SDS011;25099;51.946;4.838;2022-09-09T02:33:30;8.10;;;5.78;;
39370;SDS011;25099;51.946;4.838;2022-09-09T02:36:08;13.23;;;6.32;;
39370;SDS011;25099;51.946;4.838;2022-09-09T02:38:36;11.38;;;5.22;;
39370;SDS011;25099;51.946;4.838;2022-09-09T02:41:06;5.07;;;4.68;;
39370;SDS011;25099;51.946;4.838;2022-09-09T02:43:32;6.80;;;5.82;;
39370;SDS011;25099;51.946;4.838;2022-09-09T02:51:46;7.57;;;5.03;;
39370;SDS011;25099;51.946;4.838;2022-09-09T02:56:56;6.47;;;5.13;;
39370;SDS011;25099;51.946;4.838;2022-09-09T02:59:31;6.88;;;6.05;;
39370;SDS011;25099;51.946;4.838;2022-09-09T03:01:57;6.35;;;5.15;;
39370;SDS011;25099;51.946;4.838;2022-09-09T03:04:23;6.93;;;5.30;;
39370;SDS011;25099;51.946;4.838;2022-09-09T03:06:49;12.30;;;5.82;;
39370;SDS011;25099;51.946;4.838;2022-09-09T03:09:15;9.38;;;5.03;;
39370;SDS011;25099;51.946;4.838;2022-09-09T03:11:41;9.35;;;4.70;;
39370;SDS011;25099;51.946;4.838;2022-09-09T03:14:06;6.50;;;4.65;;
39370;SDS011;25099;51.946;4.838;2022-09-09T03:16:33;7.50;;;5.05;;
39370;SDS011;25099;51.946;4.838;2022-09-09T03:18:59;5.95;;;4.68;;
39370;SDS011;25099;51.946;4.838;2022-09-09T03:21:28;6.28;;;4.45;;
39370;SDS011;25099;51.946;4.838;2022-09-09T03:23:54;10.18;;;5.13;;
39370;SDS011;25099;51.946;4.838;2022-09-09T03:26:19;7.78;;;4.50;;
39370;SDS011;25099;51.946;4.838;2022-09-09T03:28:45;5.25;;;4.65;;
39370;SDS011;25099;51.946;4.838;2022-09-09T03:31:10;7.63;;;4.70;;
39370;SDS011;25099;51.946;4.838;2022-09-09T03:33:39;6.20;;;4.60;;
39370;SDS011;25099;51.946;4.838;2022-09-09T03:36:06;7.32;;;4.00;;
39370;SDS011;25099;51.946;4.838;2022-09-09T03:38:33;15.05;;;5.22;;
39370;SDS011;25099;51.946;4.838;2022-09-09T03:40:59;12.65;;;5.05;;
39370;SDS011;25099;51.946;4.838;2022-09-09T03:43:26;9.80;;;4.45;;
39370;SDS011;25099;51.946;4.838;2022-09-09T03:45:53;5.00;;;3.85;;
39370;SDS011;25099;51.946;4.838;2022-09-09T03:48:22;5.05;;;4.07;;
39370;SDS011;25099;51.946;4.838;2022-09-09T03:50:50;6.05;;;4.15;;
39370;SDS011;25099;51.946;4.838;2022-09-09T03:53:18;12.55;;;5.25;;
39370;SDS011;25099;51.946;4.838;2022-09-09T03:55:46;6.28;;;4.68;;
39370;SDS011;25099;51.946;4.838;2022-09-09T03:58:15;9.90;;;4.65;;
39370;SDS011;25099;51.946;4.838;2022-09-09T04:00:43;5.25;;;4.63;;
39370;SDS011;25099;51.946;4.838;2022-09-09T04:03:17;6.72;;;5.05;;
39370;SDS011;25099;51.946;4.838;2022-09-09T04:05:43;8.10;;;4.18;;
39370;SDS011;25099;51.946;4.838;2022-09-09T04:08:09;10.82;;;4.72;;
39370;SDS011;25099;51.946;4.838;2022-09-09T04:10:35;8.73;;;4.82;;
39370;SDS011;25099;51.946;4.838;2022-09-09T04:13:02;4.90;;;4.45;;
39370;SDS011;25099;51.946;4.838;2022-09-09T04:15:28;12.00;;;6.22;;
39370;SDS011;25099;51.946;4.838;2022-09-09T04:17:54;8.50;;;4.35;;
39370;SDS011;25099;51.946;4.838;2022-09-09T04:20:20;9.45;;;4.53;;
39370;SDS011;25099;51.946;4.838;2022-09-09T04:22:47;7.57;;;4.18;;
39370;SDS011;25099;51.946;4.838;2022-09-09T04:25:12;11.15;;;4.10;;
39370;SDS011;25099;51.946;4.838;2022-09-09T04:27:38;10.55;;;3.90;;
39370;SDS011;25099;51.946;4.838;2022-09-09T04:30:04;7.65;;;4.30;;
39370;SDS011;25099;51.946;4.838;2022-09-09T04:32:32;8.90;;;4.28;;
39370;SDS011;25099;51.946;4.838;2022-09-09T04:34:58;5.90;;;4.28;;
39370;SDS011;25099;51.946;4.838;2022-09-09T04:37:23;6.28;;;3.53;;
39370;SDS011;25099;51.946;4.838;2022-09-09T04:39:50;4.72;;;3.53;;
39370;SDS011;25099;51.946;4.838;2022-09-09T04:42:15;7.32;;;3.60;;
39370;SDS011;25099;51.946;4.838;2022-09-09T04:44:42;4.53;;;3.30;;
39370;SDS011;25099;51.946;4.838;2022-09-09T04:47:08;4.38;;;3.50;;
39370;SDS011;25099;51.946;4.838;2022-09-09T04:49:34;10.18;;;4.60;;
39370;SDS011;25099;51.946;4.838;2022-09-09T04:52:01;7.00;;;3.75;;
39370;SDS011;25099;51.946;4.838;2022-09-09T04:54:28;7.22;;;3.75;;
39370;SDS011;25099;51.946;4.838;2022-09-09T04:56:54;7.65;;;3.47;;
39370;SDS011;25099;51.946;4.838;2022-09-09T04:59:20;5.55;;;3.55;;
39370;SDS011;25099;51.946;4.838;2022-09-09T05:01:46;5.43;;;3.72;;
39370;SDS011;25099;51.946;4.838;2022-09-09T05:04:12;7.13;;;3.42;;
39370;SDS011;25099;51.946;4.838;2022-09-09T05:06:41;7.20;;;3.58;;
39370;SDS011;25099;51.946;4.838;2022-09-09T05:09:07;8.30;;;4.45;;
39370;SDS011;25099;51.946;4.838;2022-09-09T05:11:33;6.78;;;3.97;;
39370;SDS011;25099;51.946;4.838;2022-09-09T05:14:01;8.23;;;3.78;;
39370;SDS011;25099;51.946;4.838;2022-09-09T05:16:28;9.55;;;4.28;;
39370;SDS011;25099;51.946;4.838;2022-09-09T05:18:53;5.50;;;3.45;;
39370;SDS011;25099;51.946;4.838;2022-09-09T05:21:20;9.07;;;3.38;;
39370;SDS011;25099;51.946;4.838;2022-09-09T05:23:47;8.27;;;3.65;;
39370;SDS011;25099;51.946;4.838;2022-09-09T05:26:14;6.07;;;3.63;;
39370;SDS011;25099;51.946;4.838;2022-09-09T05:28:41;7.13;;;3.75;;
39370;SDS011;25099;51.946;4.838;2022-09-09T05:31:08;6.63;;;3.65;;
39370;SDS011;25099;51.946;4.838;2022-09-09T05:33:36;5.93;;;3.83;;
39370;SDS011;25099;51.946;4.838;2022-09-09T05:36:10;9.90;;;3.60;;
39370;SDS011;25099;51.946;4.838;2022-09-09T05:38:39;5.22;;;3.35;;
39370;SDS011;25099;51.946;4.838;2022-09-09T05:41:05;9.82;;;3.10;;
39370;SDS011;25099;51.946;4.838;2022-09-09T05:43:32;8.68;;;3.08;;
39370;SDS011;25099;51.946;4.838;2022-09-09T05:45:59;8.95;;;3.97;;
39370;SDS011;25099;51.946;4.838;2022-09-09T05:48:40;8.30;;;3.13;;
39370;SDS011;25099;51.946;4.838;2022-09-09T05:51:08;15.00;;;4.03;;
39370;SDS011;25099;51.946;4.838;2022-09-09T05:53:40;8.88;;;3.40;;
39370;SDS011;25099;51.946;4.838;2022-09-09T05:58:35;7.70;;;3.70;;
39370;SDS011;25099;51.946;4.838;2022-09-09T06:01:12;6.07;;;3.53;;
39370;SDS011;25099;51.946;4.838;2022-09-09T06:03:40;12.00;;;3.53;;
39370;SDS011;25099;51.946;4.838;2022-09-09T06:06:08;9.55;;;3.60;;
39370;SDS011;25099;51.946;4.838;2022-09-09T06:08:38;7.28;;;3.03;;
39370;SDS011;25099;51.946;4.838;2022-09-09T06:13:33;6.10;;;3.15;;
39370;SDS011;25099;51.946;4.838;2022-09-09T06:16:00;8.23;;;2.92;;
39370;SDS011;25099;51.946;4.838;2022-09-09T06:18:26;8.10;;;2.75;;
39370;SDS011;25099;51.946;4.838;2022-09-09T06:20:58;8.52;;;3.33;;
39370;SDS011;25099;51.946;4.838;2022-09-09T06:23:31;6.68;;;2.60;;
39370;SDS011;25099;51.946;4.838;2022-09-09T06:26:14;11.75;;;3.28;;
39370;SDS011;25099;51.946;4.838;2022-09-09T06:28:43;4.68;;;2.22;;
39370;SDS011;25099;51.946;4.838;2022-09-09T06:31:10;8.93;;;3.50;;
39370;SDS011;25099;51.946;4.838;2022-09-09T06:33:37;5.50;;;2.83;;
39370;SDS011;25099;51.946;4.838;2022-09-09T06:36:06;10.18;;;3.08;;
39370;SDS011;25099;51.946;4.838;2022-09-09T06:38:36;15.02;;;3.25;;
39370;SDS011;25099;51.946;4.838;2022-09-09T06:41:04;14.18;;;3.50;;
39370;SDS011;25099;51.946;4.838;2022-09-09T06:43:30;14.30;;;4.35;;
39370;SDS011;25099;51.946;4.838;2022-09-09T06:46:00;12.25;;;3.20;;
39370;SDS011;25099;51.946;4.838;2022-09-09T06:48:30;9.20;;;3.03;;
39370;SDS011;25099;51.946;4.838;2022-09-09T06:51:06;13.70;;;3.78;;
39370;SDS011;25099;51.946;4.838;2022-09-09T06:53:34;9.85;;;3.10;;
39370;SDS011;25099;51.946;4.838;2022-09-09T06:56:23;7.00;;;3.08;;
39370;SDS011;25099;51.946;4.838;2022-09-09T06:58:48;13.00;;;3.30;;
39370;SDS011;25099;51.946;4.838;2022-09-09T07:01:17;10.20;;;2.88;;
39370;SDS011;25099;51.946;4.838;2022-09-09T07:03:48;8.52;;;3.72;;
39370;SDS011;25099;51.946;4.838;2022-09-09T07:06:16;9.85;;;3.33;;
39370;SDS011;25099;51.946;4.838;2022-09-09T07:08:53;8.23;;;3.55;;
39370;SDS011;25099;51.946;4.838;2022-09-09T07:11:20;7.70;;;2.53;;
39370;SDS011;25099;51.946;4.838;2022-09-09T07:13:48;5.25;;;2.60;;
39370;SDS011;25099;51.946;4.838;2022-09-09T07:16:15;15.32;;;4.43;;
39370;SDS011;25099;51.946;4.838;2022-09-09T07:18:43;14.05;;;2.97;;
39370;SDS011;25099;51.946;4.838;2022-09-09T07:21:09;8.73;;;2.95;;
39370;SDS011;25099;51.946;4.838;2022-09-09T07:23:37;13.70;;;3.88;;
39370;SDS011;25099;51.946;4.838;2022-09-09T07:28:35;12.27;;;3.08;;
39370;SDS011;25099;51.946;4.838;2022-09-09T07:31:01;8.85;;;2.55;;
39370;SDS011;25099;51.946;4.838;2022-09-09T07:33:28;10.45;;;3.22;;
39370;SDS011;25099;51.946;4.838;2022-09-09T07:36:17;7.60;;;2.78;;
39370;SDS011;25099;51.946;4.838;2022-09-09T07:38:49;13.25;;;3.15;;
39370;SDS011;25099;51.946;4.838;2022-09-09T07:41:24;7.55;;;3.22;;
39370;SDS011;25099;51.946;4.838;2022-09-09T07:43:52;10.73;;;3.67;;
39370;SDS011;25099;51.946;4.838;2022-09-09T07:46:22;10.07;;;3.95;;
39370;SDS011;25099;51.946;4.838;2022-09-09T07:48:50;8.93;;;3.00;;
39370;SDS011;25099;51.946;4.838;2022-09-09T07:51:19;9.65;;;3.15;;
39370;SDS011;25099;51.946;4.838;2022-09-09T07:53:47;6.18;;;2.97;;
39370;SDS011;25099;51.946;4.838;2022-09-09T07:56:16;10.77;;;3.10;;
39370;SDS011;25099;51.946;4.838;2022-09-09T07:58:44;8.15;;;2.70;;
39370;SDS011;25099;51.946;4.838;2022-09-09T08:01:12;14.10;;;3.65;;
39370;SDS011;25099;51.946;4.838;2022-09-09T08:03:41;7.05;;;2.95;;
39370;SDS011;25099;51.946;4.838;2022-09-09T08:06:08;9.68;;;3.22;;
39370;SDS011;25099;51.946;4.838;2022-09-09T08:08:34;5.93;;;2.97;;
39370;SDS011;25099;51.946;4.838;2022-09-09T08:11:08;10.88;;;3.28;;
39370;SDS011;25099;51.946;4.838;2022-09-09T08:13:39;12.05;;;3.05;;
39370;SDS011;25099;51.946;4.838;2022-09-09T08:16:19;12.63;;;2.72;;
39370;SDS011;25099;51.946;4.838;2022-09-09T08:18:51;7.70;;;2.90;;
39370;SDS011;25099;51.946;4.838;2022-09-09T08:21:20;7.55;;;2.42;;
39370;SDS011;25099;51.946;4.838;2022-09-09T08:23:47;7.68;;;2.90;;
39370;SDS011;25099;51.946;4.838;2022-09-09T08:26:15;10.35;;;3.40;;
39370;SDS011;25099;51.946;4.838;2022-09-09T08:28:47;11.57;;;3.38;;
39370;SDS011;25099;51.946;4.838;2022-09-09T08:33:44;8.20;;;3.42;;
39370;SDS011;25099;51.946;4.838;2022-09-09T08:36:12;9.10;;;2.63;;
39370;SDS011;25099;51.946;4.838;2022-09-09T08:38:40;8.35;;;3.13;;
39370;SDS011;25099;51.946;4.838;2022-09-09T08:44:04;14.20;;;2.90;;
39370;SDS011;25099;51.946;4.838;2022-09-09T08:52:31;19.45;;;3.38;;
39370;SDS011;25099;51.946;4.838;2022-09-09T08:55:03;9.70;;;2.65;;
39370;SDS011;25099;51.946;4.838;2022-09-09T08:57:49;7.10;;;2.67;;
39370;SDS011;25099;51.946;4.838;2022-09-09T09:00:18;9.18;;;2.97;;
39370;SDS011;25099;51.946;4.838;2022-09-09T09:02:51;7.03;;;3.10;;
39370;SDS011;25099;51.946;4.838;2022-09-09T09:05:58;9.63;;;2.50;;
39370;SDS011;25099;51.946;4.838;2022-09-09T09:14:26;9.82;;;2.75;;
39370;SDS011;25099;51.946;4.838;2022-09-09T09:17:10;8.68;;;2.92;;
39370;SDS011;25099;51.946;4.838;2022-09-09T09:19:39;17.77;;;3.20;;
39370;SDS011;25099;51.946;4.838;2022-09-09T09:24:54;9.82;;;2.67;;
39370;SDS011;25099;51.946;4.838;2022-09-09T09:27:40;9.30;;;2.53;;
39370;SDS011;25099;51.946;4.838;2022-09-09T09:30:26;5.10;;;2.08;;
39370;SDS011;25099;51.946;4.838;2022-09-09T09:33:01;14.43;;;2.85;;
39370;SDS011;25099;51.946;4.838;2022-09-09T09:35:30;8.25;;;3.47;;
39370;SDS011;25099;51.946;4.838;2022-09-09T09:37:56;14.05;;;2.92;;
39370;SDS011;25099;51.946;4.838;2022-09-09T09:40:22;10.70;;;3.45;;
39370;SDS011;25099;51.946;4.838;2022-09-09T09:42:52;11.10;;;3.03;;
39370;SDS011;25099;51.946;4.838;2022-09-09T09:48:01;7.95;;;2.80;;
39370;SDS011;25099;51.946;4.838;2022-09-09T09:50:28;6.93;;;2.90;;
39370;SDS011;25099;51.946;4.838;2022-09-09T09:53:00;13.77;;;3.88;;
39370;SDS011;25099;51.946;4.838;2022-09-09T09:55:32;8.43;;;2.70;;
39370;SDS011;25099;51.946;4.838;2022-09-09T10:00:48;10.80;;;3.08;;
39370;SDS011;25099;51.946;4.838;2022-09-09T10:05:52;6.35;;;2.20;;
39370;SDS011;25099;51.946;4.838;2022-09-09T10:08:18;9.40;;;3.17;;
39370;SDS011;25099;51.946;4.838;2022-09-09T10:13:20;13.02;;;3.33;;
39370;SDS011;25099;51.946;4.838;2022-09-09T10:19:03;8.10;;;2.80;;
39370;SDS011;25099;51.946;4.838;2022-09-09T10:27:19;9.82;;;2.35;;
39370;SDS011;25099;51.946;4.838;2022-09-09T10:30:00;7.20;;;2.30;;
39370;SDS011;25099;51.946;4.838;2022-09-09T10:35:12;7.07;;;2.28;;
39370;SDS011;25099;51.946;4.838;2022-09-09T10:46:23;4.93;;;2.20;;
39370;SDS011;25099;51.946;4.838;2022-09-09T10:49:15;5.03;;;2.00;;
39370;SDS011;25099;51.946;4.838;2022-09-09T11:00:02;6.00;;;2.35;;
39370;SDS011;25099;51.946;4.838;2022-09-09T11:02:31;7.38;;;2.67;;
39370;SDS011;25099;51.946;4.838;2022-09-09T11:05:03;8.70;;;2.67;;
39370;SDS011;25099;51.946;4.838;2022-09-09T11:13:23;4.70;;;1.88;;
39370;SDS011;25099;51.946;4.838;2022-09-09T11:16:05;5.35;;;2.08;;
39370;SDS011;25099;51.946;4.838;2022-09-09T11:19:04;5.20;;;2.53;;
39370;SDS011;25099;51.946;4.838;2022-09-09T11:21:36;4.38;;;2.13;;
39370;SDS011;25099;51.946;4.838;2022-09-09T11:24:10;6.90;;;2.33;;
39370;SDS011;25099;51.946;4.838;2022-09-09T11:26:51;5.65;;;2.28;;
39370;SDS011;25099;51.946;4.838;2022-09-09T11:35:11;9.05;;;2.80;;
39370;SDS011;25099;51.946;4.838;2022-09-09T11:41:02;4.57;;;2.58;;
39370;SDS011;25099;51.946;4.838;2022-09-09T11:43:52;7.07;;;2.70;;
39370;SDS011;25099;51.946;4.838;2022-09-09T11:46:19;5.03;;;2.72;;
39370;SDS011;25099;51.946;4.838;2022-09-09T11:49:00;8.33;;;2.80;;
39370;SDS011;25099;51.946;4.838;2022-09-09T11:51:28;4.40;;;2.20;;
39370;SDS011;25099;51.946;4.838;2022-09-09T11:54:00;7.43;;;2.78;;
39370;SDS011;25099;51.946;4.838;2022-09-09T11:56:28;4.85;;;3.53;;
39370;SDS011;25099;51.946;4.838;2022-09-09T12:01:29;4.82;;;3.00;;
39370;SDS011;25099;51.946;4.838;2022-09-09T12:06:31;4.03;;;2.60;;
39370;SDS011;25099;51.946;4.838;2022-09-09T12:09:07;6.35;;;2.90;;
39370;SDS011;25099;51.946;4.838;2022-09-09T12:11:40;9.95;;;3.03;;
39370;SDS011;25099;51.946;4.838;2022-09-09T12:14:18;5.32;;;2.55;;
39370;SDS011;25099;51.946;4.838;2022-09-09T12:17:07;4.60;;;2.70;;
39370;SDS011;25099;51.946;4.838;2022-09-09T12:19:47;94.22;;;11.85;;
39370;SDS011;25099;51.946;4.838;2022-09-09T12:22:38;5.45;;;2.28;;
39370;SDS011;25099;51.946;4.838;2022-09-09T12:25:09;6.63;;;2.85;;
39370;SDS011;25099;51.946;4.838;2022-09-09T12:30:34;7.80;;;2.92;;
39370;SDS011;25099;51.946;4.838;2022-09-09T12:33:20;6.60;;;2.63;;
39370;SDS011;25099;51.946;4.838;2022-09-09T12:35:49;4.88;;;2.70;;
39370;SDS011;25099;51.946;4.838;2022-09-09T12:38:22;15.50;;;3.80;;
39370;SDS011;25099;51.946;4.838;2022-09-09T12:40:58;7.13;;;2.95;;
39370;SDS011;25099;51.946;4.838;2022-09-09T12:43:26;7.07;;;2.35;;
39370;SDS011;25099;51.946;4.838;2022-09-09T12:46:02;7.20;;;2.70;;
39370;SDS011;25099;51.946;4.838;2022-09-09T12:48:41;10.93;;;3.03;;
39370;SDS011;25099;51.946;4.838;2022-09-09T12:51:21;8.63;;;3.15;;
39370;SDS011;25099;51.946;4.838;2022-09-09T12:53:50;7.57;;;3.15;;
39370;SDS011;25099;51.946;4.838;2022-09-09T12:56:35;5.35;;;2.60;;
39370;SDS011;25099;51.946;4.838;2022-09-09T12:59:01;4.50;;;1.98;;
39370;SDS011;25099;51.946;4.838;2022-09-09T13:01:30;7.07;;;2.55;;
39370;SDS011;25099;51.946;4.838;2022-09-09T13:03:58;4.35;;;3.00;;
39370;SDS011;25099;51.946;4.838;2022-09-09T13:06:27;7.38;;;3.05;;
39370;SDS011;25099;51.946;4.838;2022-09-09T13:08:55;7.20;;;2.35;;
39370;SDS011;25099;51.946;4.838;2022-09-09T13:11:37;10.23;;;3.08;;
39370;SDS011;25099;51.946;4.838;2022-09-09T13:16:54;4.55;;;2.30;;
39370;SDS011;25099;51.946;4.838;2022-09-09T13:19:21;6.22;;;3.15;;
39370;SDS011;25099;51.946;4.838;2022-09-09T13:21:47;8.70;;;2.95;;
39370;SDS011;25099;51.946;4.838;2022-09-09T13:26:59;4.30;;;2.50;;
39370;SDS011;25099;51.946;4.838;2022-09-09T13:29:27;6.80;;;3.15;;
39370;SDS011;25099;51.946;4.838;2022-09-09T13:31:54;7.25;;;3.38;;
39370;SDS011;25099;51.946;4.838;2022-09-09T13:34:50;11.80;;;3.45;;
39370;SDS011;25099;51.946;4.838;2022-09-09T13:37:30;5.00;;;2.75;;
39370;SDS011;25099;51.946;4.838;2022-09-09T13:40:02;6.88;;;3.17;;
39370;SDS011;25099;51.946;4.838;2022-09-09T13:42:32;8.10;;;3.00;;
39370;SDS011;25099;51.946;4.838;2022-09-09T13:45:03;7.50;;;3.35;;
39370;SDS011;25099;51.946;4.838;2022-09-09T13:47:33;4.82;;;2.95;;
39370;SDS011;25099;51.946;4.838;2022-09-09T13:52:49;3.95;;;2.20;;
39370;SDS011;25099;51.946;4.838;2022-09-09T13:55:18;4.13;;;2.40;;
39370;SDS011;25099;51.946;4.838;2022-09-09T13:57:53;2.40;;;1.50;;
39370;SDS011;25099;51.946;4.838;2022-09-09T14:00:23;4.22;;;1.70;;
39370;SDS011;25099;51.946;4.838;2022-09-09T14:02:50;1.98;;;1.33;;
39370;SDS011;25099;51.946;4.838;2022-09-09T14:05:16;3.33;;;1.17;;
39370;SDS011;25099;51.946;4.838;2022-09-09T14:07:43;4.13;;;1.70;;
39370;SDS011;25099;51.946;4.838;2022-09-09T14:10:09;2.47;;;1.40;;
39370;SDS011;25099;51.946;4.838;2022-09-09T14:12:35;3.20;;;1.30;;
39370;SDS011;25099;51.946;4.838;2022-09-09T14:15:04;2.17;;;1.17;;
39370;SDS011;25099;51.946;4.838;2022-09-09T14:17:31;3.60;;;1.35;;
39370;SDS011;25099;51.946;4.838;2022-09-09T14:19:57;5.32;;;1.80;;
39370;SDS011;25099;51.946;4.838;2022-09-09T14:22:23;3.85;;;1.75;;
39370;SDS011;25099;51.946;4.838;2022-09-09T14:24:49;2.72;;;1.02;;
39370;SDS011;25099;51.946;4.838;2022-09-09T14:27:15;3.28;;;1.30;;
39370;SDS011;25099;51.946;4.838;2022-09-09T14:29:41;4.85;;;1.38;;
39370;SDS011;25099;51.946;4.838;2022-09-09T14:32:09;2.63;;;1.23;;
39370;SDS011;25099;51.946;4.838;2022-09-09T14:34:34;3.75;;;1.88;;
39370;SDS011;25099;51.946;4.838;2022-09-09T14:37:00;3.17;;;1.52;;
39370;SDS011;25099;51.946;4.838;2022-09-09T14:39:26;3.80;;;1.30;;
39370;SDS011;25099;51.946;4.838;2022-09-09T14:41:51;2.67;;;1.30;;
39370;SDS011;25099;51.946;4.838;2022-09-09T14:44:17;4.65;;;1.75;;
39370;SDS011;25099;51.946;4.838;2022-09-09T14:46:43;2.88;;;1.40;;
39370;SDS011;25099;51.946;4.838;2022-09-09T14:49:09;3.30;;;1.38;;
39370;SDS011;25099;51.946;4.838;2022-09-09T14:51:38;2.30;;;1.10;;
39370;SDS011;25099;51.946;4.838;2022-09-09T14:54:03;3.83;;;1.27;;
39370;SDS011;25099;51.946;4.838;2022-09-09T14:56:30;2.30;;;1.10;;
39370;SDS011;25099;51.946;4.838;2022-09-09T14:58:59;4.03;;;1.23;;
39370;SDS011;25099;51.946;4.838;2022-09-09T15:01:26;4.45;;;1.50;;
39370;SDS011;25099;51.946;4.838;2022-09-09T15:03:53;1.50;;;1.10;;
39370;SDS011;25099;51.946;4.838;2022-09-09T15:06:20;2.92;;;1.80;;
39370;SDS011;25099;51.946;4.838;2022-09-09T15:08:47;2.05;;;1.15;;
39370;SDS011;25099;51.946;4.838;2022-09-09T15:11:15;3.38;;;1.60;;
39370;SDS011;25099;51.946;4.838;2022-09-09T15:13:41;4.38;;;1.60;;
39370;SDS011;25099;51.946;4.838;2022-09-09T15:16:09;3.25;;;1.55;;
39370;SDS011;25099;51.946;4.838;2022-09-09T15:18:34;2.50;;;1.10;;
39370;SDS011;25099;51.946;4.838;2022-09-09T15:21:01;1.90;;;1.35;;
39370;SDS011;25099;51.946;4.838;2022-09-09T15:23:31;3.63;;;1.50;;
39370;SDS011;25099;51.946;4.838;2022-09-09T15:25:57;3.67;;;1.80;;
39370;SDS011;25099;51.946;4.838;2022-09-09T15:28:23;2.80;;;1.67;;
39370;SDS011;25099;51.946;4.838;2022-09-09T15:30:49;3.38;;;1.58;;
39370;SDS011;25099;51.946;4.838;2022-09-09T15:33:17;3.90;;;2.17;;
39370;SDS011;25099;51.946;4.838;2022-09-09T15:35:43;3.72;;;2.20;;
39370;SDS011;25099;51.946;4.838;2022-09-09T15:38:09;6.80;;;2.28;;
39370;SDS011;25099;51.946;4.838;2022-09-09T15:40:35;5.30;;;2.22;;
39370;SDS011;25099;51.946;4.838;2022-09-09T15:43:04;4.25;;;2.47;;
39370;SDS011;25099;51.946;4.838;2022-09-09T15:45:31;7.50;;;2.65;;
39370;SDS011;25099;51.946;4.838;2022-09-09T15:47:58;3.55;;;2.25;;
39370;SDS011;25099;51.946;4.838;2022-09-09T15:50:27;4.45;;;2.78;;
39370;SDS011;25099;51.946;4.838;2022-09-09T15:52:55;4.30;;;2.55;;
39370;SDS011;25099;51.946;4.838;2022-09-09T15:55:20;9.32;;;2.88;;
39370;SDS011;25099;51.946;4.838;2022-09-09T15:57:46;4.78;;;2.40;;
39370;SDS011;25099;51.946;4.838;2022-09-09T16:00:12;12.38;;;4.50;;
39370;SDS011;25099;51.946;4.838;2022-09-09T16:02:39;8.00;;;3.22;;
39370;SDS011;25099;51.946;4.838;2022-09-09T16:05:04;6.05;;;2.50;;
39370;SDS011;25099;51.946;4.838;2022-09-09T16:07:31;6.78;;;2.38;;
39370;SDS011;25099;51.946;4.838;2022-09-09T16:09:56;5.32;;;2.70;;
39370;SDS011;25099;51.946;4.838;2022-09-09T16:12:22;5.57;;;2.85;;
39370;SDS011;25099;51.946;4.838;2022-09-09T16:14:47;2.45;;;1.67;;
39370;SDS011;25099;51.946;4.838;2022-09-09T16:17:13;3.83;;;2.08;;
39370;SDS011;25099;51.946;4.838;2022-09-09T16:19:40;4.63;;;2.30;;
39370;SDS011;25099;51.946;4.838;2022-09-09T16:22:05;4.03;;;1.98;;
39370;SDS011;25099;51.946;4.838;2022-09-09T16:24:31;4.72;;;2.10;;
39370;SDS011;25099;51.946;4.838;2022-09-09T16:26:57;6.60;;;3.35;;
39370;SDS011;25099;51.946;4.838;2022-09-09T16:29:23;9.15;;;2.58;;
39370;SDS011;25099;51.946;4.838;2022-09-09T16:31:52;3.33;;;2.08;;
39370;SDS011;25099;51.946;4.838;2022-09-09T16:34:19;8.48;;;2.35;;
39370;SDS011;25099;51.946;4.838;2022-09-09T16:36:45;8.05;;;2.25;;
39370;SDS011;25099;51.946;4.838;2022-09-09T16:39:12;4.25;;;2.22;;
39370;SDS011;25099;51.946;4.838;2022-09-09T16:41:43;4.80;;;2.22;;
39370;SDS011;25099;51.946;4.838;2022-09-09T16:44:10;5.60;;;2.03;;
39370;SDS011;25099;51.946;4.838;2022-09-09T16:46:38;5.50;;;2.30;;
39370;SDS011;25099;51.946;4.838;2022-09-09T16:49:07;4.40;;;2.65;;
39370;SDS011;25099;51.946;4.838;2022-09-09T16:51:35;5.85;;;2.30;;
39370;SDS011;25099;51.946;4.838;2022-09-09T16:54:06;5.20;;;2.35;;
39370;SDS011;25099;51.946;4.838;2022-09-09T16:56:33;6.20;;;2.17;;
39370;SDS011;25099;51.946;4.838;2022-09-09T16:59:03;5.70;;;2.05;;
39370;SDS011;25099;51.946;4.838;2022-09-09T17:01:32;6.55;;;2.47;;
39370;SDS011;25099;51.946;4.838;2022-09-09T17:04:02;7.22;;;2.25;;
39370;SDS011;25099;51.946;4.838;2022-09-09T17:06:30;4.75;;;2.10;;
39370;SDS011;25099;51.946;4.838;2022-09-09T17:08:58;4.72;;;1.80;;
39370;SDS011;25099;51.946;4.838;2022-09-09T17:11:26;4.90;;;2.58;;
39370;SDS011;25099;51.946;4.838;2022-09-09T17:13:53;8.88;;;2.90;;
39370;SDS011;25099;51.946;4.838;2022-09-09T17:16:21;3.58;;;2.25;;
39370;SDS011;25099;51.946;4.838;2022-09-09T17:18:48;5.00;;;2.33;;
39370;SDS011;25099;51.946;4.838;2022-09-09T17:21:16;7.72;;;1.90;;
39370;SDS011;25099;51.946;4.838;2022-09-09T17:23:44;4.68;;;2.55;;
39370;SDS011;25099;51.946;4.838;2022-09-09T17:26:11;3.70;;;1.75;;
39370;SDS011;25099;51.946;4.838;2022-09-09T17:28:39;5.40;;;2.50;;
39370;SDS011;25099;51.946;4.838;2022-09-09T17:31:06;2.35;;;2.15;;
39370;SDS011;25099;51.946;4.838;2022-09-09T17:33:34;5.25;;;2.22;;
39370;SDS011;25099;51.946;4.838;2022-09-09T17:36:01;3.80;;;2.47;;
39370;SDS011;25099;51.946;4.838;2022-09-09T17:38:28;5.00;;;2.50;;
39370;SDS011;25099;51.946;4.838;2022-09-09T17:41:00;8.73;;;2.55;;